createdAt,value
2022-11-16T00:00:20.091Z,13.07
2022-11-16T00:03:17.382Z,13.17
2022-11-16T00:06:14.798Z,13.10
2022-11-16T00:09:27.004Z,13.12
2022-11-16T00:12:24.184Z,13.07
2022-11-16T00:15:21.408Z,13.09
2022-11-16T00:18:18.414Z,13.08
2022-11-16T00:21:15.348Z,13.13
2022-11-16T00:24:13.831Z,13.09
2022-11-16T00:27:11.397Z,13.05
2022-11-16T00:30:10.729Z,12.93
2022-11-16T00:33:08.631Z,12.73
2022-11-16T00:36:08.002Z,12.78
2022-11-16T00:39:05.435Z,12.69
2022-11-16T00:42:02.508Z,12.61
2022-11-16T00:45:00.337Z,12.59
2022-11-16T00:48:00.438Z,12.61
2022-11-16T00:50:58.439Z,12.70
2022-11-16T00:53:55.357Z,12.61
2022-11-16T00:56:53.311Z,12.63
2022-11-16T00:59:50.537Z,12.72
2022-11-16T01:02:47.274Z,12.57
2022-11-16T01:05:44.554Z,12.56
2022-11-16T01:08:41.727Z,12.52
2022-11-16T01:11:57.730Z,12.42
2022-11-16T01:14:55.668Z,12.39
2022-11-16T01:17:54.169Z,12.45
2022-11-16T01:20:53.676Z,12.47
2022-11-16T01:23:50.519Z,12.41
2022-11-16T01:26:49.950Z,12.30
2022-11-16T01:29:49.010Z,12.37
2022-11-16T01:32:46.399Z,12.37
2022-11-16T01:35:46.329Z,12.43
2022-11-16T01:38:46.021Z,12.37
2022-11-16T01:41:45.680Z,12.33
2022-11-16T01:44:44.169Z,12.21
2022-11-16T01:47:45.546Z,12.06
2022-11-16T01:50:46.759Z,12.14
2022-11-16T01:53:44.260Z,12.24
2022-11-16T01:56:44.964Z,12.19
2022-11-16T01:59:54.184Z,12.25
2022-11-16T02:02:53.613Z,12.22
2022-11-16T02:06:32.106Z,12.14
2022-11-16T02:10:08.827Z,12.32
2022-11-16T02:13:18.365Z,12.30
2022-11-16T02:16:52.758Z,12.35
2022-11-16T02:20:20.346Z,12.34
2022-11-16T02:23:45.205Z,12.34
2022-11-16T02:26:54.061Z,12.01
2022-11-16T02:29:52.599Z,11.94
2022-11-16T02:33:09.233Z,12.05
2022-11-16T02:36:07.077Z,12.14
2022-11-16T02:39:07.907Z,11.93
2022-11-16T02:42:06.160Z,11.96
2022-11-16T02:45:04.814Z,11.98
2022-11-16T02:48:15.169Z,11.96
2022-11-16T02:51:12.312Z,11.81
2022-11-16T02:54:13.046Z,11.78
2022-11-16T02:57:23.653Z,11.97
2022-11-16T03:00:26.066Z,11.98
2022-11-16T03:03:43.359Z,11.96
2022-11-16T03:06:41.523Z,11.98
2022-11-16T03:09:39.205Z,12.07
2022-11-16T03:12:38.489Z,11.95
2022-11-16T03:15:36.811Z,12.02
2022-11-16T03:18:35.033Z,12.00
2022-11-16T03:21:45.721Z,11.80
2022-11-16T03:24:43.610Z,11.88
2022-11-16T03:27:53.986Z,11.80
2022-11-16T03:30:55.053Z,11.87
2022-11-16T03:33:56.188Z,11.68
2022-11-16T03:36:54.556Z,11.63
2022-11-16T03:39:51.386Z,11.61
2022-11-16T03:42:49.748Z,11.65
2022-11-16T03:45:47.725Z,11.73
2022-11-16T03:48:45.646Z,11.80
2022-11-16T03:51:51.442Z,11.90
2022-11-16T03:54:49.612Z,12.03
2022-11-16T03:57:47.951Z,11.92
2022-11-16T04:00:46.045Z,11.69
2022-11-16T04:03:43.362Z,11.65
2022-11-16T04:07:00.123Z,11.70
2022-11-16T04:10:16.399Z,11.71
2022-11-16T04:13:33.494Z,11.65
2022-11-16T04:16:49.196Z,11.59
2022-11-16T04:20:05.440Z,11.62
2022-11-16T04:23:31.473Z,11.64
2022-11-16T04:26:47.301Z,11.61
2022-11-16T04:29:44.569Z,11.53
2022-11-16T04:33:01.018Z,11.59
2022-11-16T04:36:20.553Z,11.71
2022-11-16T04:39:18.564Z,11.65
2022-11-16T04:42:19.208Z,11.65
2022-11-16T04:45:38.633Z,11.63
2022-11-16T04:48:35.517Z,11.52
2022-11-16T04:51:33.495Z,11.39
2022-11-16T04:54:31.673Z,11.50
2022-11-16T04:57:29.663Z,11.45
2022-11-16T05:00:26.282Z,11.56
2022-11-16T05:03:23.600Z,11.44
2022-11-16T05:06:21.662Z,11.48
2022-11-16T05:09:19.860Z,11.40
2022-11-16T05:12:21.662Z,11.42
2022-11-16T05:15:21.620Z,11.36
2022-11-16T05:18:18.262Z,11.31
2022-11-16T05:21:16.002Z,11.30
2022-11-16T05:24:32.020Z,11.20
2022-11-16T05:27:29.908Z,11.27
2022-11-16T05:30:29.710Z,11.24
2022-11-16T05:33:29.491Z,11.26
2022-11-16T05:36:26.624Z,11.27
2022-11-16T05:39:23.720Z,11.23
2022-11-16T05:42:21.577Z,11.19
2022-11-16T05:45:21.203Z,11.23
2022-11-16T05:48:20.036Z,11.20
2022-11-16T05:51:18.700Z,11.31
2022-11-16T05:54:18.997Z,11.25
2022-11-16T05:57:17.560Z,11.21
2022-11-16T06:00:15.299Z,11.44
2022-11-16T06:03:13.021Z,11.44
2022-11-16T06:06:11.450Z,11.31
2022-11-16T06:09:09.388Z,11.24
2022-11-16T06:12:09.325Z,11.38
2022-11-16T06:15:06.893Z,11.34
2022-11-16T06:18:04.669Z,11.30
2022-11-16T06:21:01.556Z,11.27
2022-11-16T06:23:58.684Z,11.20
2022-11-16T06:26:57.077Z,11.15
2022-11-16T06:29:54.680Z,11.23
2022-11-16T06:32:52.907Z,11.24
2022-11-16T06:35:50.498Z,11.27
2022-11-16T06:38:51.688Z,11.31
2022-11-16T06:41:50.445Z,11.28
2022-11-16T06:44:47.589Z,11.27
2022-11-16T06:47:48.365Z,11.25
2022-11-16T06:50:49.921Z,11.18
2022-11-16T06:53:48.353Z,11.16
2022-11-16T06:56:46.293Z,11.16
2022-11-16T06:59:43.775Z,11.22
2022-11-16T07:02:40.713Z,11.24
2022-11-16T07:05:42.776Z,11.27
2022-11-16T07:08:43.575Z,11.31
2022-11-16T07:11:42.550Z,11.29
2022-11-16T07:14:39.632Z,11.38
2022-11-16T07:17:39.665Z,11.26
2022-11-16T07:20:37.456Z,11.22
2022-11-16T07:23:34.620Z,11.28
2022-11-16T07:26:34.881Z,11.35
2022-11-16T07:29:38.384Z,11.28
2022-11-16T07:32:57.322Z,11.28
2022-11-16T07:36:15.950Z,11.34
2022-11-16T07:39:13.930Z,11.28
2022-11-16T07:42:12.357Z,11.21
2022-11-16T07:45:24.316Z,11.16
2022-11-16T07:48:26.513Z,11.25
2022-11-16T07:51:42.927Z,11.18
2022-11-16T07:54:49.273Z,11.15
2022-11-16T07:57:52.979Z,11.21
2022-11-16T08:00:50.677Z,11.27
2022-11-16T08:03:48.191Z,11.29
2022-11-16T08:06:46.954Z,11.16
2022-11-16T08:09:44.959Z,11.29
2022-11-16T08:39:36.281Z,11.24
2022-11-16T08:42:33.456Z,11.31
2022-11-16T08:45:30.627Z,11.54
2022-11-16T08:48:27.777Z,11.59
2022-11-16T08:51:24.989Z,11.59
2022-11-16T08:54:29.944Z,11.71
2022-11-16T08:57:27.545Z,11.74
2022-11-16T09:00:28.625Z,11.76
2022-11-16T09:03:25.554Z,11.75
2022-11-16T09:06:23.256Z,11.85
2022-11-16T09:09:20.596Z,11.86
2022-11-16T09:12:17.894Z,11.95
2022-11-16T09:15:15.265Z,11.75
2022-11-16T09:18:12.783Z,11.56
2022-11-16T09:21:09.779Z,11.65
2022-11-16T09:24:06.532Z,11.75
2022-11-16T09:27:03.825Z,11.79
2022-11-16T09:30:01.935Z,11.75
2022-11-16T09:32:59.399Z,11.91
2022-11-16T09:36:01.657Z,11.80
2022-11-16T09:42:36.927Z,12.21
2022-11-16T09:45:50.264Z,12.17
2022-11-16T09:48:48.612Z,12.05
2022-11-16T09:51:47.432Z,12.00
2022-11-16T09:54:44.536Z,11.94
2022-11-16T09:57:41.757Z,11.92
2022-11-16T10:00:38.561Z,11.92
2022-11-16T10:03:38.510Z,11.98
2022-11-16T10:06:57.685Z,12.13
2022-11-16T10:09:55.851Z,12.13
2022-11-16T10:12:56.219Z,12.12
2022-11-16T10:16:00.417Z,12.21
2022-11-16T10:19:22.469Z,12.26
2022-11-16T10:22:42.807Z,12.21
2022-11-16T10:25:47.167Z,12.34
2022-11-16T10:29:33.677Z,12.34
2022-11-16T10:32:32.151Z,12.40
2022-11-16T10:35:41.825Z,12.46
2022-11-16T10:38:38.592Z,12.46
2022-11-16T10:41:51.023Z,12.44
2022-11-16T10:44:53.847Z,12.34
2022-11-16T10:47:57.945Z,12.42
2022-11-16T10:50:56.024Z,12.44
2022-11-16T10:53:54.303Z,12.46
2022-11-16T10:57:05.406Z,12.48
2022-11-16T11:00:03.477Z,12.43
2022-11-16T11:03:00.752Z,12.54
2022-11-16T11:05:57.712Z,12.62
2022-11-16T11:08:54.604Z,12.62
2022-11-16T11:12:38.470Z,12.61
2022-11-16T11:15:35.757Z,12.65
2022-11-16T11:18:32.532Z,12.78
2022-11-16T11:21:29.529Z,12.79
2022-11-16T11:24:44.094Z,12.90
2022-11-16T11:27:42.222Z,12.76
2022-11-16T11:30:39.864Z,12.86
2022-11-16T11:33:44.078Z,13.15
2022-11-16T11:37:03.458Z,13.08
2022-11-16T11:40:09.720Z,13.37
2022-11-16T11:43:06.777Z,13.68
2022-11-16T11:46:05.577Z,13.30
2022-11-16T11:49:34.056Z,13.44
2022-11-16T11:52:39.670Z,13.63
2022-11-16T11:55:36.759Z,13.64
2022-11-16T11:58:35.787Z,13.87
2022-11-16T12:02:06.629Z,13.99
2022-11-16T12:05:35.012Z,14.12
2022-11-16T12:08:58.066Z,13.67
2022-11-16T12:12:18.191Z,13.45
2022-11-16T12:15:27.886Z,13.19
2022-11-16T12:18:56.658Z,13.34
2022-11-16T12:22:12.517Z,13.54
2022-11-16T12:25:21.503Z,13.32
2022-11-16T12:28:37.109Z,13.24
2022-11-16T12:32:00.394Z,13.48
2022-11-16T12:35:35.570Z,13.47
2022-11-16T12:38:57.576Z,13.79
2022-11-16T12:42:00.758Z,13.91
2022-11-16T12:45:32.905Z,14.02
2022-11-16T12:48:29.825Z,13.97
2022-11-16T12:51:37.542Z,13.92
2022-11-16T12:55:04.275Z,14.06
2022-11-16T12:58:06.995Z,14.18
2022-11-16T13:01:22.905Z,14.28
2022-11-16T13:04:26.075Z,14.31
2022-11-16T13:07:37.484Z,14.51
2022-11-16T13:10:36.024Z,14.42
2022-11-16T13:13:37.089Z,14.32
2022-11-16T13:16:34.761Z,14.25
2022-11-16T13:19:31.888Z,13.87
2022-11-16T13:22:29.073Z,13.77
2022-11-16T13:25:55.069Z,13.66
2022-11-16T13:29:14.877Z,13.55
2022-11-16T13:32:17.622Z,13.67
2022-11-16T13:35:16.073Z,13.71
2022-11-16T13:38:16.075Z,13.69
2022-11-16T13:41:29.727Z,13.87
2022-11-16T13:44:28.242Z,13.83
2022-11-16T13:47:27.997Z,13.88
2022-11-16T13:50:37.247Z,13.82
2022-11-16T13:57:20.222Z,13.80
2022-11-16T14:00:27.318Z,13.93
2022-11-16T14:03:26.703Z,13.91
2022-11-16T14:06:23.899Z,13.97
2022-11-16T14:09:46.359Z,13.83
2022-11-16T14:12:54.373Z,13.83
2022-11-16T14:16:21.487Z,13.94
2022-11-16T14:19:55.184Z,13.91
2022-11-16T14:22:52.648Z,14.07
2022-11-16T14:26:11.691Z,13.92
2022-11-16T14:29:38.969Z,13.76
2022-11-16T14:32:43.296Z,13.74
2022-11-16T14:35:40.985Z,13.75
2022-11-16T14:38:41.945Z,13.77
2022-11-16T14:41:39.077Z,13.77
2022-11-16T14:44:38.549Z,13.84
2022-11-16T14:47:36.311Z,13.94
2022-11-16T14:50:39.633Z,13.99
2022-11-16T14:53:39.715Z,13.86
2022-11-16T14:56:36.653Z,13.85
2022-11-16T14:59:33.899Z,13.81
2022-11-16T15:02:30.870Z,13.97
2022-11-16T15:05:29.609Z,14.23
2022-11-16T15:08:39.134Z,14.26
2022-11-16T15:11:59.030Z,14.05
2022-11-16T15:14:57.293Z,13.91
2022-11-16T15:18:00.923Z,13.77
2022-11-16T15:20:58.209Z,13.66
2022-11-16T15:27:34.727Z,13.17
2022-11-16T15:30:37.097Z,12.86
2022-11-16T15:33:38.469Z,12.65
2022-11-16T15:36:39.448Z,12.54
2022-11-16T15:39:36.851Z,12.43
2022-11-16T15:42:33.934Z,12.42
2022-11-16T15:45:31.023Z,12.35
2022-11-16T15:48:28.091Z,12.27
2022-11-16T15:51:24.951Z,12.18
2022-11-16T15:54:24.882Z,12.26
2022-11-16T15:57:23.221Z,12.17
2022-11-16T16:00:23.618Z,11.82
2022-11-16T16:03:26.080Z,11.70
2022-11-16T16:07:01.636Z,11.43
2022-11-16T16:10:23.925Z,11.30
2022-11-16T16:13:39.025Z,11.01
2022-11-16T16:16:39.172Z,10.94
2022-11-16T16:19:39.069Z,10.95
2022-11-16T16:22:37.080Z,10.80
2022-11-16T16:25:34.721Z,10.56
2022-11-16T16:28:31.721Z,10.74
2022-11-16T16:31:29.025Z,10.78
2022-11-16T16:34:26.106Z,10.54
2022-11-16T16:37:22.966Z,10.58
2022-11-16T16:40:20.011Z,10.65
2022-11-16T16:43:17.256Z,10.51
2022-11-16T16:46:14.161Z,10.55
2022-11-16T16:49:10.935Z,10.47
2022-11-16T16:52:08.116Z,10.24
2022-11-16T16:55:05.784Z,10.29
2022-11-16T16:58:02.957Z,10.56
2022-11-16T17:01:04.369Z,10.70
2022-11-16T17:04:02.118Z,10.61
2022-11-16T17:06:59.442Z,10.31
2022-11-16T17:09:56.906Z,10.27
2022-11-16T17:12:54.706Z,10.19
2022-11-16T17:15:51.908Z,10.35
2022-11-16T17:18:54.001Z,10.14
2022-11-16T17:21:51.790Z,10.02
2022-11-16T17:24:48.866Z,10.28
2022-11-16T17:27:46.074Z,10.14
2022-11-16T17:30:42.950Z,10.18
2022-11-16T17:33:42.823Z,10.16
2022-11-16T17:36:40.313Z,10.17
2022-11-16T17:39:38.332Z,10.14
2022-11-16T17:42:36.212Z,9.74
2022-11-16T17:45:33.143Z,9.48
2022-11-16T17:48:30.150Z,9.66
2022-11-16T17:51:27.879Z,9.86
2022-11-16T17:54:25.151Z,9.91
2022-11-16T17:57:22.111Z,9.95
2022-11-16T18:00:19.215Z,9.96
2022-11-16T18:03:16.488Z,10.00
2022-11-16T18:06:16.017Z,9.69
2022-11-16T18:09:13.211Z,9.67
2022-11-16T18:12:10.127Z,9.79
2022-11-16T18:15:27.323Z,9.72
2022-11-16T18:18:24.852Z,9.72
2022-11-16T18:21:21.757Z,9.73
2022-11-16T18:24:19.465Z,9.78
2022-11-16T18:27:17.395Z,9.87
2022-11-16T18:30:15.377Z,9.68
2022-11-16T18:33:13.179Z,9.60
2022-11-16T18:36:10.188Z,9.47
2022-11-16T18:39:07.031Z,9.25
2022-11-16T18:42:04.045Z,9.31
2022-11-16T18:45:01.418Z,9.46
2022-11-16T18:47:59.110Z,9.37
2022-11-16T18:50:59.976Z,9.43
2022-11-16T18:53:56.941Z,9.31
2022-11-16T18:56:55.288Z,9.24
2022-11-16T18:59:51.925Z,9.40
2022-11-16T19:02:48.870Z,9.29
2022-11-16T19:05:45.968Z,9.05
2022-11-16T19:08:43.513Z,8.88
2022-11-16T19:11:41.018Z,9.05
2022-11-16T19:14:39.446Z,9.08
2022-11-16T19:17:48.181Z,9.17
2022-11-16T19:21:06.136Z,8.90
2022-11-16T19:24:03.267Z,8.86
2022-11-16T19:26:59.858Z,8.84
2022-11-16T19:29:56.905Z,8.88
2022-11-16T19:32:57.427Z,8.92
2022-11-16T19:35:55.020Z,9.00
2022-11-16T19:38:52.157Z,8.88
2022-11-16T19:41:48.843Z,8.97
2022-11-16T19:44:46.063Z,9.05
2022-11-16T19:47:44.701Z,8.96
2022-11-16T19:50:42.178Z,8.83
2022-11-16T19:53:39.325Z,8.72
2022-11-16T19:56:35.958Z,8.65
2022-11-16T19:59:33.161Z,8.71
2022-11-16T20:02:30.236Z,8.83
2022-11-16T20:05:30.083Z,8.72
2022-11-16T20:08:27.145Z,8.68
2022-11-16T20:11:25.339Z,8.66
2022-11-16T20:14:22.021Z,8.79
2022-11-16T20:17:19.295Z,8.91
2022-11-16T20:20:16.208Z,8.94
2022-11-16T20:23:15.618Z,8.89
2022-11-16T20:26:13.908Z,8.94
2022-11-16T20:29:12.142Z,8.94
2022-11-16T20:32:09.187Z,8.92
2022-11-16T20:35:05.929Z,9.01
2022-11-16T20:38:03.180Z,8.98
2022-11-16T20:41:10.415Z,9.11
2022-11-16T20:44:10.617Z,9.01
2022-11-16T20:47:09.971Z,8.87
2022-11-16T20:50:07.357Z,8.73
2022-11-16T20:53:04.306Z,8.88
2022-11-16T20:56:02.750Z,8.98
2022-11-16T20:59:00.416Z,8.89
2022-11-16T21:01:56.949Z,8.95
2022-11-16T21:04:59.960Z,8.91
2022-11-16T21:07:59.503Z,8.86
2022-11-16T21:10:57.289Z,8.97
2022-11-16T21:14:13.240Z,8.96
2022-11-16T21:17:09.869Z,8.80
2022-11-16T21:23:25.028Z,8.85
2022-11-16T21:26:23.880Z,8.81
2022-11-16T21:29:25.930Z,8.92
2022-11-16T21:32:22.990Z,8.97
2022-11-16T21:35:21.044Z,8.78
2022-11-16T21:38:17.979Z,8.70
2022-11-16T21:41:15.912Z,8.84
2022-11-16T21:44:13.593Z,8.82
2022-11-16T21:47:11.347Z,8.87
2022-11-16T21:50:30.531Z,8.75
2022-11-16T21:53:25.361Z,8.80
2022-11-16T21:56:23.714Z,8.87
2022-11-16T21:59:21.367Z,8.73
2022-11-16T22:02:18.771Z,8.68
2022-11-16T22:05:34.715Z,8.82
2022-11-16T22:08:32.168Z,8.84
2022-11-16T22:11:29.434Z,8.85
2022-11-16T22:14:25.982Z,8.81
2022-11-16T22:17:23.455Z,8.67
2022-11-16T22:20:20.972Z,8.73
2022-11-16T22:23:22.671Z,8.76
2022-11-16T22:26:20.019Z,8.77
2022-11-16T22:29:17.042Z,8.73
2022-11-16T22:32:14.036Z,8.78
2022-11-16T22:35:11.544Z,8.80
2022-11-16T22:38:09.189Z,8.68
2022-11-16T22:41:06.481Z,8.79
2022-11-16T22:44:03.259Z,8.70
2022-11-16T22:47:00.093Z,8.82
2022-11-16T22:49:57.059Z,8.90
2022-11-16T22:52:54.215Z,8.87
2022-11-16T22:55:51.099Z,8.83
2022-11-16T22:58:48.045Z,8.75
2022-11-16T23:01:45.013Z,8.89
2022-11-16T23:04:42.390Z,8.89
2022-11-16T23:07:41.397Z,8.81
2022-11-16T23:10:58.330Z,8.72
2022-11-16T23:14:14.206Z,8.64
2022-11-16T23:17:11.266Z,8.77
2022-11-16T23:20:27.788Z,8.77
2022-11-16T23:23:44.015Z,8.69
2022-11-16T23:27:00.148Z,8.62
2022-11-16T23:30:01.265Z,8.59
2022-11-16T23:32:58.207Z,8.68
2022-11-16T23:35:55.161Z,8.66
2022-11-16T23:38:52.241Z,8.72
2022-11-16T23:42:08.006Z,8.70
2022-11-16T23:45:05.428Z,8.67
2022-11-16T23:48:02.388Z,8.59
2022-11-16T23:50:59.155Z,8.49
2022-11-16T23:53:56.123Z,8.55
2022-11-16T23:56:53.422Z,8.61
2022-11-16T23:59:50.367Z,8.63
